Time;durP1;ratioP1;P1;durP2;ratioP2;P2;SDS_P1;SDS_P2;PMS_P1;PMS_P2;Temp;Humidity;BMP_temperature;BMP_pressure;BME280_temperature;BME280_humidity;BME280_pressure;Samples;Min_cycle;Max_cycle;Signal;HPM_P1;HPM_P2
2023/05/15 00:00:09;;;;;;;10.77;9.32;;;;;;;-146.25;92.37;52088.41;2087744;28;32006;-71
2023/05/15 00:01:16;;;;;;;10.73;9.63;;;;;;;-146.25;92.20;52053.94;2088970;28;20037;-72
2023/05/15 00:02:18;;;;;;;14.35;11.93;;;;;;;-146.25;92.97;52062.03;2088749;28;20038;-72
2023/05/15 00:03:20;;;;;;;12.40;11.15;;;;;;;-146.25;93.25;52074.22;2088963;28;36747;-72
2023/05/15 00:04:21;;;;;;;12.32;11.13;;;;;;;-146.25;94.20;52064.06;2088390;28;35652;-72
2023/05/15 00:05:24;;;;;;;12.77;11.52;;;;;;;-146.25;94.54;52074.22;2089195;28;34572;-71
2023/05/15 00:06:28;;;;;;;13.60;12.27;;;;;;;-146.25;94.74;52090.44;2089230;28;20173;-71
2023/05/15 00:07:38;;;;;;;12.73;11.52;;;;;;;-146.25;94.81;52100.56;2089792;28;20044;-73
2023/05/15 00:08:39;;;;;;;15.50;13.25;;;;;;;-146.25;94.57;52084.34;2096174;28;37728;-72
2023/05/15 00:09:41;;;;;;;13.48;11.93;;;;;;;-146.25;95.07;52092.44;2088244;28;35570;-72
2023/05/15 00:10:43;;;;;;;15.18;12.68;;;;;;;-146.25;95.08;52060.00;2088397;28;20068;-72
2023/05/15 00:12:00;;;;;;;13.60;11.57;;;;;;;-146.25;94.87;52023.53;2096308;28;37434;-72
2023/05/15 00:13:02;;;;;;;12.70;11.50;;;;;;;-146.25;95.25;52076.22;2093814;28;28756;-72
2023/05/15 00:14:04;;;;;;;13.68;12.38;;;;;;;-146.25;95.19;52072.19;2087930;28;35865;-72
2023/05/15 00:15:06;;;;;;;14.63;13.18;;;;;;;-146.25;95.44;52084.34;2087612;28;36339;-72
2023/05/15 00:16:10;;;;;;;15.52;12.18;;;;;;;-146.25;96.41;52096.50;2088637;28;36131;-72
2023/05/15 00:17:12;;;;;;;14.63;12.57;;;;;;;-146.25;96.35;52084.34;2088704;28;32318;-72
2023/05/15 00:18:14;;;;;;;15.77;14.18;;;;;;;-146.25;96.76;52064.06;2097013;28;20033;-72
2023/05/15 00:19:16;;;;;;;14.23;12.73;;;;;;;-146.25;98.16;52092.44;2087778;28;36885;-72
2023/05/15 00:20:18;;;;;;;14.95;13.45;;;;;;;-146.25;96.74;52064.06;2088052;28;32327;-72
2023/05/15 00:21:20;;;;;;;16.25;13.43;;;;;;;-146.25;99.56;52090.44;2089153;28;20042;-72
2023/05/15 00:22:22;;;;;;;14.27;12.88;;;;;;;-146.25;98.58;52112.72;2088388;28;36187;-72
2023/05/15 00:23:23;;;;;;;14.77;13.27;;;;;;;-146.25;98.86;52064.06;2088473;28;34796;-72
2023/05/15 00:24:25;;;;;;;15.05;13.55;;;;;;;-146.25;97.94;52090.44;2096238;28;33457;-72
2023/05/15 00:25:27;;;;;;;15.30;12.88;;;;;;;-146.25;97.93;52094.47;2095937;28;34003;-72
2023/05/15 00:26:29;;;;;;;15.95;13.93;;;;;;;-146.25;97.58;52098.53;2097020;28;20237;-72
2023/05/15 00:27:31;;;;;;;14.65;12.48;;;;;;;-146.25;97.98;52092.44;2088371;28;25431;-72
2023/05/15 00:28:33;;;;;;;16.05;14.55;;;;;;;-146.25;98.39;52104.63;2080113;28;22776;-72
2023/05/15 00:29:35;;;;;;;18.08;14.73;;;;;;;-146.25;99.44;52108.66;2088085;28;28054;-72
2023/05/15 00:30:39;;;;;;;16.85;14.98;;;;;;;-146.25;98.38;52072.19;2088257;28;29028;-72
2023/05/15 00:31:40;;;;;;;16.70;14.57;;;;;;;-146.25;98.14;52062.03;2088780;28;20033;-72
2023/05/15 00:32:42;;;;;;;15.90;14.38;;;;;;;-146.25;99.35;52068.13;2096157;28;26731;-72
2023/05/15 00:33:44;;;;;;;18.67;16.67;;;;;;;-146.25;99.24;52116.78;2096533;28;20068;-72
2023/05/15 00:34:46;;;;;;;20.08;17.05;;;;;;;-146.25;98.75;52096.50;2089253;28;20104;-72
2023/05/15 00:35:48;;;;;;;17.90;16.13;;;;;;;-146.25;99.09;52092.44;2087786;28;31809;-72
2023/05/15 00:36:50;;;;;;;17.73;15.82;;;;;;;-146.25;98.88;52114.75;2088725;28;20044;-72
2023/05/15 00:37:52;;;;;;;17.70;15.90;;;;;;;-146.25;98.34;52137.06;2088002;28;24805;-72
2023/05/15 00:38:54;;;;;;;18.10;16.20;;;;;;;-146.25;99.01;52090.44;2089021;28;24486;-72
2023/05/15 00:39:59;;;;;;;19.40;17.45;;;;;;;-146.25;99.10;52084.34;2087849;28;21016;-72
2023/05/15 00:41:02;;;;;;;18.65;16.85;;;;;;;-146.25;99.30;52082.31;2088672;28;20949;-72
2023/05/15 00:42:05;;;;;;;17.33;15.52;;;;;;;-146.25;99.40;52098.53;2095765;28;32955;-72
2023/05/15 00:43:08;;;;;;;20.95;16.67;;;;;;;-146.25;99.45;52114.75;2087546;28;32150;-72
2023/05/15 00:44:12;;;;;;;18.02;16.20;;;;;;;-146.25;99.60;52096.50;2072072;28;20057;-72
2023/05/15 00:45:15;;;;;;;19.30;17.20;;;;;;;-146.25;99.88;52064.06;2063684;28;33547;-71
2023/05/15 00:46:19;;;;;;;18.02;16.15;;;;;;;-146.25;100.00;52076.22;2079497;28;38189;-72
2023/05/15 00:47:22;;;;;;;19.13;17.13;;;;;;;-146.25;100.00;52104.63;2079984;28;27034;-72
2023/05/15 00:48:27;;;;;;;17.30;15.45;;;;;;;-146.25;99.69;52092.44;2080821;28;20038;-72
2023/05/15 00:49:34;;;;;;;17.92;16.20;;;;;;;-146.25;99.81;52104.63;2088147;28;21058;-72
2023/05/15 00:50:40;;;;;;;17.63;15.85;;;;;;;-146.25;99.52;52090.44;2096527;28;20041;-72
2023/05/15 00:51:42;;;;;;;17.15;15.48;;;;;;;-146.25;99.55;52072.19;2087848;28;20168;-72
2023/05/15 00:52:44;;;;;;;18.67;16.77;;;;;;;-146.25;99.72;52090.44;2087888;28;28994;-72
2023/05/15 00:53:46;;;;;;;22.50;18.67;;;;;;;-146.25;100.00;52098.53;2096222;28;24573;-72
2023/05/15 00:54:48;;;;;;;19.02;17.02;;;;;;;-146.25;100.00;52078.25;2095847;28;24204;-72
2023/05/15 00:55:56;;;;;;;22.65;18.75;;;;;;;-146.25;100.00;52051.91;2095970;28;29132;-72
2023/05/15 00:57:00;;;;;;;19.23;17.33;;;;;;;-146.25;100.00;52096.50;2096927;28;20115;-72
2023/05/15 00:58:02;;;;;;;21.05;18.88;;;;;;;-146.25;100.00;52114.75;2095244;28;20033;-72
2023/05/15 00:59:06;;;;;;;21.80;19.45;;;;;;;-146.25;100.00;52076.22;2096475;28;20253;-72
2023/05/15 01:00:10;;;;;;;21.50;19.20;;;;;;;-146.25;100.00;52106.66;2087672;28;21904;-72
2023/05/15 01:01:15;;;;;;;21.02;18.85;;;;;;;-146.25;100.00;52114.75;2087863;28;36655;-72
2023/05/15 01:02:18;;;;;;;21.52;19.33;;;;;;;-146.25;100.00;52108.66;2088472;28;26413;-72
2023/05/15 01:03:20;;;;;;;22.67;20.27;;;;;;;-146.25;100.00;52124.91;2088660;28;24958;-72
2023/05/15 01:04:21;;;;;;;26.13;21.40;;;;;;;-146.25;100.00;52082.31;2088092;28;29134;-72
2023/05/15 01:05:24;;;;;;;25.33;22.63;;;;;;;-146.25;100.00;52084.34;2088752;28;20046;-72
2023/05/15 01:06:28;;;;;;;23.75;20.38;;;;;;;-146.25;100.00;52068.13;2095861;28;26766;-72
2023/05/15 01:07:39;;;;;;;23.25;20.27;;;;;;;-146.25;100.00;52104.63;2096502;28;20045;-71
2023/05/15 01:08:49;;;;;;;22.20;19.27;;;;;;;-146.25;100.00;52098.53;2096000;28;26939;-72
2023/05/15 01:09:52;;;;;;;20.53;18.17;;;;;;;-146.25;100.00;52116.78;2093878;28;25360;-72
2023/05/15 01:10:56;;;;;;;21.83;19.45;;;;;;;-146.25;100.00;52118.81;2096261;28;24456;-72
2023/05/15 01:11:59;;;;;;;22.15;19.85;;;;;;;-146.25;100.00;52114.75;2096348;28;20115;-71
2023/05/15 01:13:03;;;;;;;20.65;17.60;;;;;;;-146.25;100.00;52102.59;2095738;28;30695;-72
2023/05/15 01:14:07;;;;;;;22.77;20.38;;;;;;;-146.25;100.00;52128.94;2096708;28;20123;-72
2023/05/15 01:15:10;;;;;;;21.77;19.17;;;;;;;-146.25;100.00;52060.00;2095766;28;25208;-72
2023/05/15 01:16:11;;;;;;;23.65;21.20;;;;;;;-146.25;100.00;52090.44;2096051;28;30410;-72
2023/05/15 01:17:13;;;;;;;24.50;21.95;;;;;;;-146.25;100.00;52086.38;2088451;28;23816;-72
2023/05/15 01:18:15;;;;;;;21.95;19.65;;;;;;;-146.25;100.00;52116.78;2095764;28;34899;-72
2023/05/15 01:19:17;;;;;;;23.15;20.70;;;;;;;-146.25;100.00;52100.56;2096135;28;20885;-72
2023/05/15 01:20:21;;;;;;;24.08;21.45;;;;;;;-146.25;100.00;52120.84;2087768;28;27360;-72
2023/05/15 01:21:35;;;;;;;25.58;22.85;;;;;;;-146.25;100.00;52098.53;2087238;28;26780;-72
2023/05/15 01:22:46;;;;;;;22.75;20.42;;;;;;;-146.25;100.00;52096.50;2087644;28;20040;-72
2023/05/15 01:24:25;;;;;;;24.30;21.65;;;;;;;-146.25;100.00;52106.66;2087660;28;28816;-72
2023/05/15 01:25:54;;;;;;;24.60;22.05;;;;;;;-146.25;100.00;52076.22;2088584;28;27043;-72
2023/05/15 01:27:35;;;;;;;22.85;20.45;;;;;;;-146.25;100.00;52141.13;2088259;28;34510;-72
2023/05/15 01:28:44;;;;;;;24.60;22.00;;;;;;;-146.25;100.00;52108.66;2087892;28;34838;-72
2023/05/15 01:30:25;;;;;;;26.75;22.48;;;;;;;-146.25;100.00;52112.72;2096178;28;20501;-72
2023/05/15 01:31:31;;;;;;;25.20;22.50;;;;;;;-146.25;100.00;52102.59;2084510;28;23176;-72
2023/05/15 01:33:15;;;;;;;28.98;25.33;;;;;;;-146.25;100.00;52098.53;2088203;28;25724;-72
2023/05/15 01:34:21;;;;;;;30.33;26.50;;;;;;;-146.25;100.00;52116.78;2088818;28;20038;-72
2023/05/15 01:35:42;;;;;;;28.75;24.17;;;;;;;-146.25;100.00;52102.59;2095706;28;34987;-72
2023/05/15 01:36:50;;;;;;;26.33;23.48;;;;;;;-146.25;100.00;52074.22;2092917;28;22955;-71
2023/05/15 01:38:26;;;;;;;29.80;25.48;;;;;;;-146.25;100.00;52086.38;2088378;28;28884;-71
2023/05/15 01:39:32;;;;;;;27.77;23.80;;;;;;;-146.25;100.00;52072.19;2065127;28;26152;-72
2023/05/15 01:40:34;;;;;;;29.10;24.40;;;;;;;-146.25;100.00;52078.25;2084784;28;20029;-72
2023/05/15 01:41:49;;;;;;;26.92;24.05;;;;;;;-146.25;100.00;52088.41;2080401;28;20256;-72
2023/05/15 01:43:00;;;;;;;27.55;24.08;;;;;;;-146.25;100.00;52124.91;2090486;28;20185;-72
2023/05/15 01:44:14;;;;;;;26.05;23.23;;;;;;;-146.25;100.00;52084.34;2079226;28;26562;-72
2023/05/15 01:45:17;;;;;;;29.75;25.70;;;;;;;-146.25;100.00;52104.63;2082131;28;32915;-72
2023/05/15 01:46:22;;;;;;;27.60;23.80;;;;;;;-146.25;100.00;52116.78;2078959;28;29070;-72
2023/05/15 01:47:34;;;;;;;34.65;28.83;;;;;;;-146.25;100.00;52116.78;2080411;28;20176;-72
2023/05/15 01:48:39;;;;;;;32.85;28.95;;;;;;;-146.25;100.00;52120.84;2089633;28;22510;-71
2023/05/15 01:49:44;;;;;;;32.95;28.67;;;;;;;-146.25;100.00;52072.19;2087778;28;30663;-72
2023/05/15 01:50:53;;;;;;;32.97;27.65;;;;;;;-146.25;100.00;52116.78;2080493;28;20086;-71
2023/05/15 01:52:11;;;;;;;29.52;26.20;;;;;;;-146.25;100.00;52133.00;2089530;28;28091;-72
2023/05/15 01:53:14;;;;;;;32.28;26.60;;;;;;;-146.25;100.00;52104.63;2084096;28;29040;-72
2023/05/15 01:54:17;;;;;;;27.75;24.83;;;;;;;-146.25;100.00;52112.72;2089372;28;20042;-72
2023/05/15 01:55:23;;;;;;;32.65;27.40;;;;;;;-146.25;100.00;52096.50;2095234;28;27354;-72
2023/05/15 01:56:26;;;;;;;29.73;25.65;;;;;;;-146.25;100.00;52096.50;2087520;28;32764;-72
2023/05/15 01:57:32;;;;;;;33.20;27.77;;;;;;;-146.25;100.00;52110.69;2080461;28;20045;-72
2023/05/15 01:58:37;;;;;;;33.00;28.88;;;;;;;-146.25;100.00;52149.22;2079701;28;24086;-72
2023/05/15 01:59:44;;;;;;;33.10;29.17;;;;;;;-146.25;100.00;52096.50;2080510;28;20819;-72
2023/05/15 02:00:47;;;;;;;31.40;28.00;;;;;;;-146.25;100.00;52108.66;2079202;28;20120;-72
2023/05/15 02:01:50;;;;;;;29.33;26.13;;;;;;;-146.25;100.00;52100.56;2097417;28;34616;-72
2023/05/15 02:02:52;;;;;;;29.30;25.50;;;;;;;-146.25;100.00;52124.91;2097066;28;20037;-72
2023/05/15 02:03:54;;;;;;;32.65;28.73;;;;;;;-146.25;100.00;52084.34;2097554;28;32716;-71
2023/05/15 02:04:57;;;;;;;28.45;25.33;;;;;;;-146.25;100.00;52092.44;2105512;28;20049;-71
2023/05/15 02:06:03;;;;;;;27.75;24.75;;;;;;;-146.25;100.00;52106.66;2089435;28;27973;-72
2023/05/15 02:07:05;;;;;;;32.42;27.50;;;;;;;-146.25;100.00;52084.34;2088552;28;31902;-72
2023/05/15 02:08:11;;;;;;;30.83;27.52;;;;;;;-146.25;100.00;52120.84;2081541;28;20045;-72
2023/05/15 02:09:14;;;;;;;29.77;26.13;;;;;;;-146.25;100.00;52104.63;2088594;28;20951;-72
2023/05/15 02:10:17;;;;;;;32.88;26.95;;;;;;;-146.25;100.00;52126.91;2081157;28;20094;-72
2023/05/15 02:11:21;;;;;;;30.90;27.45;;;;;;;-146.25;100.00;52141.13;2089141;28;20915;-72
2023/05/15 02:12:24;;;;;;;32.33;25.88;;;;;;;-146.25;100.00;52090.44;2089422;28;30318;-72
2023/05/15 02:13:26;;;;;;;32.92;27.75;;;;;;;-146.25;100.00;52104.63;2088731;28;29643;-72
2023/05/15 02:14:29;;;;;;;29.90;26.25;;;;;;;-146.25;100.00;52100.56;2089841;28;20158;-72
2023/05/15 02:15:31;;;;;;;37.17;30.15;;;;;;;-146.25;100.00;52112.72;2096161;28;33675;-71
2023/05/15 02:16:33;;;;;;;34.63;29.73;;;;;;;-146.25;100.00;52102.59;2088383;28;30508;-71
2023/05/15 02:17:35;;;;;;;36.28;30.73;;;;;;;-146.25;100.00;52110.69;2089200;28;20210;-72
2023/05/15 02:18:37;;;;;;;36.55;31.88;;;;;;;-146.25;100.00;52126.91;2105525;28;27360;-72
2023/05/15 02:19:41;;;;;;;34.50;30.40;;;;;;;-146.25;100.00;52084.34;2096533;28;30176;-72
2023/05/15 02:20:43;;;;;;;39.58;32.35;;;;;;;-146.25;100.00;52157.34;2089401;28;20033;-72
2023/05/15 02:21:45;;;;;;;38.30;32.80;;;;;;;-146.25;100.00;52114.75;2088668;28;20926;-72
2023/05/15 02:22:46;;;;;;;36.10;32.03;;;;;;;-146.25;100.00;52096.50;2088729;28;20046;-72
2023/05/15 02:23:48;;;;;;;35.85;30.83;;;;;;;-146.25;100.00;52084.34;2088414;28;20107;-72
2023/05/15 02:24:50;;;;;;;36.88;30.35;;;;;;;-146.25;100.00;52096.50;2089445;28;30176;-72
2023/05/15 02:26:28;;;;;;;33.58;29.70;;;;;;;-146.25;100.00;52096.50;2088963;28;31607;-72
2023/05/15 02:27:58;;;;;;;33.58;29.55;;;;;;;-146.25;100.00;52110.69;2088935;28;21984;-71
2023/05/15 02:29:22;;;;;;;35.38;29.90;;;;;;;-146.25;100.00;52124.91;2082180;28;27944;-72
2023/05/15 02:30:53;;;;;;;33.53;28.77;;;;;;;-146.25;100.00;52126.91;2097070;28;20044;-72
2023/05/15 02:32:13;;;;;;;34.20;28.13;;;;;;;-146.25;100.00;52106.66;2094864;28;20045;-72
2023/05/15 02:33:42;;;;;;;36.92;29.98;;;;;;;-146.25;100.00;52092.44;2093605;28;38074;-72
2023/05/15 02:35:12;;;;;;;36.83;29.55;;;;;;;-146.25;100.00;52130.97;2089791;28;20042;-72
2023/05/15 02:36:29;;;;;;;42.72;31.63;;;;;;;-146.25;100.00;52110.69;2089308;28;23173;-72
2023/05/15 02:37:37;;;;;;;38.05;31.30;;;;;;;-146.25;100.00;52106.66;2090152;28;20123;-72
2023/05/15 02:38:52;;;;;;;37.03;30.73;;;;;;;-146.25;100.00;52084.34;2096916;28;26685;-72
2023/05/15 02:39:59;;;;;;;38.00;32.22;;;;;;;-146.25;100.00;52141.13;2088725;28;20049;-72
2023/05/15 02:41:04;;;;;;;42.20;34.90;;;;;;;-146.25;100.00;52122.88;2089707;28;33137;-71
2023/05/15 02:42:08;;;;;;;45.75;35.65;;;;;;;-146.25;100.00;52116.78;2081504;28;20030;-72
2023/05/15 02:43:12;;;;;;;40.70;33.50;;;;;;;-146.25;100.00;52137.06;2089158;28;30150;-72
2023/05/15 02:44:14;;;;;;;38.65;32.17;;;;;;;-146.25;100.00;52130.97;2089120;28;25421;-72
2023/05/15 02:45:18;;;;;;;35.60;30.83;;;;;;;-146.25;100.00;52137.06;2089387;28;20087;-72
2023/05/15 02:46:21;;;;;;;41.90;33.15;;;;;;;-146.25;100.00;52124.91;2096861;28;26189;-72
2023/05/15 02:47:24;;;;;;;42.08;32.63;;;;;;;-146.25;100.00;52122.88;2096025;28;30112;-72
2023/05/15 02:48:28;;;;;;;43.45;35.28;;;;;;;-146.25;100.00;52118.81;2089145;28;34569;-72
2023/05/15 02:49:30;;;;;;;40.42;33.63;;;;;;;-146.25;100.00;52110.69;2096132;28;30873;-72
2023/05/15 02:50:32;;;;;;;44.13;35.65;;;;;;;-146.25;100.00;52060.00;2088708;28;20045;-72
2023/05/15 02:51:36;;;;;;;49.33;38.03;;;;;;;-146.25;100.00;52157.34;2097144;28;24807;-72
2023/05/15 02:52:38;;;;;;;52.42;40.88;;;;;;;-146.25;100.00;52114.75;2088137;28;25965;-71
2023/05/15 02:53:41;;;;;;;49.90;38.38;;;;;;;-146.25;100.00;52096.50;2089157;28;20061;-72
2023/05/15 02:54:43;;;;;;;50.83;40.70;;;;;;;-146.25;100.00;52128.94;2097233;28;20118;-72
2023/05/15 02:55:45;;;;;;;51.45;40.20;;;;;;;-146.25;100.00;52153.28;2096824;28;27544;-71
2023/05/15 02:56:50;;;;;;;46.25;37.08;;;;;;;-146.25;100.00;52135.03;2088949;28;28709;-72
2023/05/15 02:57:51;;;;;;;49.40;39.20;;;;;;;-146.25;100.00;52126.91;2089714;28;20034;-72
2023/05/15 02:58:53;;;;;;;47.72;38.03;;;;;;;-146.25;100.00;52102.59;2088330;28;28111;-71
2023/05/15 02:59:56;;;;;;;56.58;43.38;;;;;;;-146.25;100.00;52090.44;2088998;28;27610;-72
2023/05/15 03:00:58;;;;;;;55.50;43.33;;;;;;;-146.25;100.00;52128.94;2096358;28;21015;-72
2023/05/15 03:02:02;;;;;;;56.55;44.03;;;;;;;-146.25;100.00;52092.44;2089902;28;20038;-71
2023/05/15 03:03:04;;;;;;;58.17;43.55;;;;;;;-146.25;100.00;52098.53;2089656;28;20038;-72
2023/05/15 03:04:05;;;;;;;57.17;42.30;;;;;;;-146.25;100.00;52098.53;2090052;28;20100;-72
2023/05/15 03:05:12;;;;;;;57.08;43.90;;;;;;;-146.25;100.00;52088.41;2088886;28;20119;-71
2023/05/15 03:06:15;;;;;;;53.50;40.90;;;;;;;-146.25;100.00;52112.72;2081268;28;20880;-72
2023/05/15 03:07:17;;;;;;;53.92;41.58;;;;;;;-146.25;100.00;52133.00;2097034;28;20041;-72
2023/05/15 03:08:18;;;;;;;59.75;44.55;;;;;;;-146.25;100.00;52163.41;2105522;28;20801;-71
2023/05/15 03:09:20;;;;;;;54.10;41.35;;;;;;;-146.25;100.00;52149.22;2088006;28;35676;-72
2023/05/15 03:10:23;;;;;;;58.75;45.13;;;;;;;-146.25;100.00;52128.94;2096733;28;24408;-72
2023/05/15 03:11:24;;;;;;;61.47;45.40;;;;;;;-146.25;100.00;52096.50;2095967;28;31048;-72
2023/05/15 03:12:26;;;;;;;62.72;45.80;;;;;;;-146.25;100.00;52149.22;2096814;28;20767;-71
2023/05/15 03:13:28;;;;;;;62.85;45.33;;;;;;;-146.25;100.00;52110.69;2104058;28;20036;-71
2023/05/15 03:14:30;;;;;;;61.78;46.08;;;;;;;-146.25;100.00;52137.06;2090013;28;20146;-72
2023/05/15 03:15:31;;;;;;;57.55;42.13;;;;;;;-146.25;100.00;52135.03;2089024;28;20041;-72
2023/05/15 03:16:35;;;;;;;60.40;44.60;;;;;;;-146.25;100.00;52137.06;2096555;28;20143;-72
2023/05/15 03:17:37;;;;;;;55.65;41.88;;;;;;;-146.25;100.00;52122.88;2088338;28;20042;-72
2023/05/15 03:18:40;;;;;;;63.70;46.60;;;;;;;-146.25;100.00;52137.06;2091425;28;20171;-72
2023/05/15 03:19:44;;;;;;;63.22;45.97;;;;;;;-146.25;100.00;52118.81;2097714;28;20033;-72
2023/05/15 03:20:47;;;;;;;63.95;46.75;;;;;;;-146.25;100.00;52096.50;2104844;28;38548;-72
2023/05/15 03:21:52;;;;;;;59.30;44.20;;;;;;;-146.25;100.00;52124.91;2104846;28;20143;-71
2023/05/15 03:22:54;;;;;;;58.15;44.15;;;;;;;-146.25;100.00;52116.78;2089278;28;34260;-72
2023/05/15 03:23:56;;;;;;;56.95;44.60;;;;;;;-146.25;100.00;52139.09;2088724;28;20131;-72
2023/05/15 03:25:00;;;;;;;65.30;49.05;;;;;;;-146.25;100.00;52098.53;2096958;28;30008;-71
2023/05/15 03:26:02;;;;;;;73.38;51.20;;;;;;;-146.25;100.00;52108.66;2096370;28;20898;-71
2023/05/15 03:27:05;;;;;;;71.93;50.47;;;;;;;-146.25;100.00;52153.28;2089530;28;20034;-71
2023/05/15 03:28:06;;;;;;;73.35;52.53;;;;;;;-146.25;100.00;52130.97;2088771;28;22116;-72
2023/05/15 03:29:08;;;;;;;79.45;53.08;;;;;;;-146.25;100.00;52102.59;2097783;28;21518;-72
2023/05/15 03:30:10;;;;;;;70.25;51.38;;;;;;;-146.25;100.00;52110.69;2097481;28;20874;-71
2023/05/15 03:31:13;;;;;;;75.13;52.70;;;;;;;-146.25;100.00;52120.84;2096662;28;33181;-72
2023/05/15 03:32:17;;;;;;;71.43;49.55;;;;;;;-146.25;100.00;52153.28;2097243;28;20033;-72
2023/05/15 03:33:19;;;;;;;76.25;53.58;;;;;;;-146.25;100.00;52137.06;2087789;28;25305;-71
2023/05/15 03:34:21;;;;;;;64.25;45.53;;;;;;;-146.25;100.00;52124.91;2088422;28;26384;-72
2023/05/15 03:35:23;;;;;;;72.68;50.88;;;;;;;-146.25;100.00;52149.22;2097466;28;20053;-72
2023/05/15 03:36:25;;;;;;;69.30;49.33;;;;;;;-146.25;100.00;52143.13;2096751;28;30085;-71
2023/05/15 03:37:27;;;;;;;69.45;50.55;;;;;;;-146.25;100.00;52100.56;2096681;28;26873;-71
2023/05/15 03:38:29;;;;;;;74.53;51.13;;;;;;;-146.25;100.00;52128.94;2104666;28;20158;-73
2023/05/15 03:39:31;;;;;;;74.63;52.70;;;;;;;-146.25;100.00;52157.34;2104911;28;28552;-72
2023/05/15 03:40:32;;;;;;;76.10;52.80;;;;;;;-146.25;100.00;52141.13;2104785;28;20905;-70
2023/05/15 03:41:34;;;;;;;73.03;51.45;;;;;;;-146.25;100.00;52149.22;2096944;28;37429;-71
2023/05/15 03:42:36;;;;;;;69.90;51.13;;;;;;;-146.25;100.00;52092.44;2097026;28;20999;-73
2023/05/15 03:43:38;;;;;;;71.32;49.67;;;;;;;-146.25;100.00;52106.66;2097251;28;20045;-72
2023/05/15 03:44:40;;;;;;;71.20;51.33;;;;;;;-146.25;100.00;52173.56;2098408;28;20045;-70
2023/05/15 03:45:41;;;;;;;74.03;51.97;;;;;;;-146.25;100.00;52116.78;2097159;28;28255;-72
2023/05/15 03:46:43;;;;;;;74.55;52.97;;;;;;;-146.25;100.00;52128.94;2097374;28;20041;-72
2023/05/15 03:47:45;;;;;;;74.20;53.35;;;;;;;-146.25;100.00;52120.84;2097539;28;24102;-72
2023/05/15 03:48:47;;;;;;;72.72;51.78;;;;;;;-146.25;100.00;52141.13;2091385;28;32636;-72
2023/05/15 03:49:48;;;;;;;79.78;55.63;;;;;;;-146.25;100.00;52133.00;2089180;28;20066;-72
2023/05/15 03:50:51;;;;;;;73.55;52.80;;;;;;;-146.25;100.00;52126.91;2087980;28;27196;-72
2023/05/15 03:51:52;;;;;;;85.97;58.38;;;;;;;-146.25;100.00;52173.56;2088346;28;20231;-72
2023/05/15 03:52:54;;;;;;;82.72;56.28;;;;;;;-146.25;100.00;52163.41;2095140;28;33311;-72
2023/05/15 03:53:56;;;;;;;72.32;51.05;;;;;;;-146.25;100.00;52124.91;2088219;28;20123;-72
2023/05/15 03:54:58;;;;;;;78.88;55.30;;;;;;;-146.25;100.00;52124.91;2088261;28;30352;-72
2023/05/15 03:56:02;;;;;;;71.85;51.22;;;;;;;-146.25;100.00;52120.84;2088776;28;20560;-72
2023/05/15 03:57:05;;;;;;;75.28;52.22;;;;;;;-146.25;100.00;52128.94;2091064;28;30833;-72
2023/05/15 03:58:07;;;;;;;71.43;49.70;;;;;;;-146.25;100.00;52133.00;2096452;28;20143;-72
2023/05/15 03:59:08;;;;;;;71.93;51.42;;;;;;;-146.25;100.00;52130.97;2088130;28;26497;-72
2023/05/15 04:00:11;;;;;;;78.65;54.67;;;;;;;-146.25;100.00;52153.28;2095998;28;35815;-73
2023/05/15 04:01:13;;;;;;;79.57;54.33;;;;;;;-146.25;100.00;52124.91;2104129;28;20036;-72
2023/05/15 04:02:14;;;;;;;75.85;53.20;;;;;;;-146.25;100.00;52110.69;2095827;28;37717;-72
2023/05/15 04:03:17;;;;;;;76.65;52.70;;;;;;;-146.25;100.00;52137.06;2095695;28;30455;-69
2023/05/15 04:04:19;;;;;;;76.63;52.72;;;;;;;-146.25;100.00;52139.09;2095746;28;20156;-70
2023/05/15 04:05:21;;;;;;;77.63;51.80;;;;;;;-146.25;100.00;52155.31;2096308;28;35950;-70
2023/05/15 04:06:23;;;;;;;71.13;50.33;;;;;;;-146.25;100.00;52128.94;2096792;28;28537;-71
2023/05/15 04:07:25;;;;;;;77.68;52.55;;;;;;;-146.25;100.00;52124.91;2087431;28;34179;-70
2023/05/15 04:08:27;;;;;;;80.55;54.58;;;;;;;-146.25;100.00;52139.09;2088059;28;35844;-71
2023/05/15 04:09:29;;;;;;;78.15;53.60;;;;;;;-146.25;100.00;52118.81;2097490;28;20196;-72
2023/05/15 04:10:32;;;;;;;75.88;54.38;;;;;;;-146.25;100.00;52128.94;2095335;28;20102;-72
2023/05/15 04:11:34;;;;;;;80.45;53.53;;;;;;;-146.25;100.00;52110.69;2096570;28;32785;-73
2023/05/15 04:12:36;;;;;;;75.32;52.53;;;;;;;-146.25;100.00;52096.50;2104236;28;33283;-72
2023/05/15 04:13:38;;;;;;;71.70;50.53;;;;;;;-146.25;100.00;52112.72;2097725;28;20033;-72
2023/05/15 04:14:39;;;;;;;71.40;50.08;;;;;;;-146.25;100.00;52169.50;2096485;28;34337;-72
2023/05/15 04:15:41;;;;;;;66.05;48.63;;;;;;;-146.25;100.00;52128.94;2089872;28;36657;-72
2023/05/15 04:16:43;;;;;;;62.55;47.28;;;;;;;-146.25;100.00;52149.22;2095777;28;36081;-72
2023/05/15 04:17:49;;;;;;;63.40;48.55;;;;;;;-146.25;100.00;52141.13;2096813;28;36949;-72
2023/05/15 04:18:53;;;;;;;57.78;45.90;;;;;;;-146.25;100.00;52153.28;2090358;28;31262;-72
2023/05/15 04:19:55;;;;;;;56.63;45.78;;;;;;;-146.25;100.00;52112.72;2088224;28;28714;-72
2023/05/15 04:20:56;;;;;;;53.72;42.58;;;;;;;-146.25;100.00;52104.63;2087404;28;41117;-72
2023/05/15 04:21:58;;;;;;;50.95;42.03;;;;;;;-146.25;100.00;52149.22;2096348;28;33429;-72
2023/05/15 04:23:02;;;;;;;49.42;40.85;;;;;;;-146.25;100.00;52141.13;2095553;28;34950;-72
2023/05/15 04:24:06;;;;;;;51.55;41.25;;;;;;;-146.25;100.00;52137.06;2087444;28;20133;-72
2023/05/15 04:25:10;;;;;;;44.75;38.92;;;;;;;-146.25;100.00;52143.13;2088406;28;33511;-72
2023/05/15 04:26:11;;;;;;;45.95;38.67;;;;;;;-146.25;100.00;52116.78;2096358;28;30783;-72
2023/05/15 04:27:13;;;;;;;45.25;37.25;;;;;;;-146.25;100.00;52120.84;2096287;28;20067;-72
2023/05/15 04:28:18;;;;;;;43.47;36.42;;;;;;;-146.25;100.00;52177.59;2088377;28;36293;-71
2023/05/15 04:29:20;;;;;;;44.95;36.50;;;;;;;-146.25;97.47;52155.31;2088878;28;22617;-72
2023/05/15 04:30:22;;;;;;;41.75;35.33;;;;;;;-146.25;97.02;52135.03;2088391;28;32853;-72
2023/05/15 04:31:24;;;;;;;39.97;34.22;;;;;;;-146.25;95.94;52161.38;2089100;28;20080;-72
2023/05/15 04:32:26;;;;;;;40.08;33.97;;;;;;;-146.25;94.24;52108.66;2089009;28;20068;-72
2023/05/15 04:33:30;;;;;;;39.40;34.05;;;;;;;-146.25;95.31;52128.94;2088232;28;33651;-71
2023/05/15 04:34:32;;;;;;;37.53;33.40;;;;;;;-146.25;94.14;52157.34;2095859;28;33246;-72
2023/05/15 04:35:34;;;;;;;39.60;32.72;;;;;;;-146.25;94.01;52128.94;2096801;28;20052;-71
2023/05/15 04:36:36;;;;;;;36.75;32.33;;;;;;;-146.25;91.98;52120.84;2088245;28;36078;-71
2023/05/15 04:37:44;;;;;;;37.22;33.17;;;;;;;-146.25;91.30;52149.22;2087975;28;33516;-71
2023/05/15 04:38:46;;;;;;;35.58;30.88;;;;;;;-146.25;90.49;52133.00;2088587;28;32425;-72
2023/05/15 04:39:48;;;;;;;36.92;31.83;;;;;;;-146.25;89.62;52153.28;2088288;28;35251;-72
2023/05/15 04:40:52;;;;;;;36.45;32.30;;;;;;;-146.25;88.86;52096.50;2087128;28;35593;-72
2023/05/15 04:41:56;;;;;;;37.92;33.80;;;;;;;-146.25;88.32;52130.97;2087224;28;33751;-71
2023/05/15 04:42:58;;;;;;;36.53;31.08;;;;;;;-146.25;88.09;52108.66;2087721;28;38439;-72
2023/05/15 04:43:59;;;;;;;37.85;32.30;;;;;;;-146.25;84.79;52181.66;2088097;28;32650;-73
2023/05/15 04:45:02;;;;;;;37.97;32.03;;;;;;;-146.25;86.53;52135.03;2088304;28;35222;-71
2023/05/15 04:46:05;;;;;;;36.78;31.55;;;;;;;-146.25;86.09;52118.81;2088947;28;34849;-70
2023/05/15 04:47:07;;;;;;;37.08;32.67;;;;;;;-146.25;82.77;52159.34;2095836;28;32311;-72
2023/05/15 04:48:09;;;;;;;33.78;30.02;;;;;;;-146.25;84.14;52141.13;2095497;28;38411;-70
2023/05/15 04:49:10;;;;;;;36.47;31.38;;;;;;;-146.25;81.59;52141.13;2096828;28;20849;-72